Gilze-Rijen, Netherlands
Current Conditions -  °F | °C
As of 4:25 AM on Sunday 23 Nov 2014 (Local Time) from EHGR Reporting Station
Haze Haze  
Wind Chill: 50°   Ceiling: 10000
Heat Index: 50°   Visibility: 5mi
Dew Point: 48°   Wind: 3mph
Humidity: 94%   Direction: 140°SE
Pressure: 30.03"   Gusts: NA
Location:  51.59°N, 4.92°E
Report Text: EHGR 230325Z AUTO 14003KT 8000 BR FEW011 SCT079 BKN100 10/09 Q1017 BLU
Loading
Personal Weather Stations






























Interactive Weather Map New forecast layout! Learn more

10-Day Weather Forecast

Advertisements
Track Severe Weather on mobile